sensor_id;sensor_type;location;lat;lon;timestamp;temperature;humidity
64987;DHT22;67903;52.108;9.358;2023-08-20T00:01:22;21.10;93.70
64987;DHT22;67903;52.108;9.358;2023-08-20T00:04:09;21.10;93.70
64987;DHT22;67903;52.108;9.358;2023-08-20T00:06:55;21.20;93.30
64987;DHT22;67903;52.108;9.358;2023-08-20T00:09:40;21.20;93.20
64987;DHT22;67903;52.108;9.358;2023-08-20T00:12:26;21.20;93.30
64987;DHT22;67903;52.108;9.358;2023-08-20T00:15:11;21.10;93.60
64987;DHT22;67903;52.108;9.358;2023-08-20T00:17:57;21.10;93.40
64987;DHT22;67903;52.108;9.358;2023-08-20T00:20:43;21.20;93.30
64987;DHT22;67903;52.108;9.358;2023-08-20T00:23:31;21.20;93.20
64987;DHT22;67903;52.108;9.358;2023-08-20T00:26:16;21.10;93.20
64987;DHT22;67903;52.108;9.358;2023-08-20T00:29:02;21.20;93.10
64987;DHT22;67903;52.108;9.358;2023-08-20T00:31:47;21.20;92.90
64987;DHT22;67903;52.108;9.358;2023-08-20T00:34:33;21.20;92.70
64987;DHT22;67903;52.108;9.358;2023-08-20T00:37:19;21.30;92.50
64987;DHT22;67903;52.108;9.358;2023-08-20T00:40:05;21.10;92.40
64987;DHT22;67903;52.108;9.358;2023-08-20T00:42:51;21.10;92.10
64987;DHT22;67903;52.108;9.358;2023-08-20T00:45:37;21.10;91.80
64987;DHT22;67903;52.108;9.358;2023-08-20T00:48:24;21.10;91.20
64987;DHT22;67903;52.108;9.358;2023-08-20T00:51:10;21.10;90.00
64987;DHT22;67903;52.108;9.358;2023-08-20T00:53:57;21.10;89.30
64987;DHT22;67903;52.108;9.358;2023-08-20T00:56:43;21.00;88.80
64987;DHT22;67903;52.108;9.358;2023-08-20T00:59:32;21.00;88.40
64987;DHT22;67903;52.108;9.358;2023-08-20T01:02:18;21.00;88.30
64987;DHT22;67903;52.108;9.358;2023-08-20T01:05:05;20.90;87.80
64987;DHT22;67903;52.108;9.358;2023-08-20T01:11:24;20.80;87.70
64987;DHT22;67903;52.108;9.358;2023-08-20T01:14:15;20.80;87.10
64987;DHT22;67903;52.108;9.358;2023-08-20T01:17:02;20.80;86.80
64987;DHT22;67903;52.108;9.358;2023-08-20T01:19:48;20.70;86.40
64987;DHT22;67903;52.108;9.358;2023-08-20T01:22:59;20.70;85.70
64987;DHT22;67903;52.108;9.358;2023-08-20T01:29:08;20.60;85.20
64987;DHT22;67903;52.108;9.358;2023-08-20T01:31:54;20.60;84.80
64987;DHT22;67903;52.108;9.358;2023-08-20T01:34:40;20.50;84.80
64987;DHT22;67903;52.108;9.358;2023-08-20T01:37:26;20.50;84.60
64987;DHT22;67903;52.108;9.358;2023-08-20T01:40:11;20.30;85.00
64987;DHT22;67903;52.108;9.358;2023-08-20T01:42:57;20.30;85.20
64987;DHT22;67903;52.108;9.358;2023-08-20T01:45:43;20.30;85.10
64987;DHT22;67903;52.108;9.358;2023-08-20T01:48:29;20.30;85.00
64987;DHT22;67903;52.108;9.358;2023-08-20T01:51:15;20.30;84.90
64987;DHT22;67903;52.108;9.358;2023-08-20T01:54:01;20.30;84.70
64987;DHT22;67903;52.108;9.358;2023-08-20T01:56:47;20.30;84.20
64987;DHT22;67903;52.108;9.358;2023-08-20T01:59:33;20.30;84.30
64987;DHT22;67903;52.108;9.358;2023-08-20T02:02:18;20.30;83.80
64987;DHT22;67903;52.108;9.358;2023-08-20T02:05:04;20.20;84.00
64987;DHT22;67903;52.108;9.358;2023-08-20T02:07:49;20.20;83.90
64987;DHT22;67903;52.108;9.358;2023-08-20T02:10:35;20.30;83.50
64987;DHT22;67903;52.108;9.358;2023-08-20T02:13:23;20.30;83.20
64987;DHT22;67903;52.108;9.358;2023-08-20T02:16:08;20.30;83.20
64987;DHT22;67903;52.108;9.358;2023-08-20T02:18:54;20.30;83.40
64987;DHT22;67903;52.108;9.358;2023-08-20T02:21:39;20.30;83.30
64987;DHT22;67903;52.108;9.358;2023-08-20T02:24:25;20.10;83.40
64987;DHT22;67903;52.108;9.358;2023-08-20T02:27:11;20.10;83.10
64987;DHT22;67903;52.108;9.358;2023-08-20T02:29:56;20.10;83.40
64987;DHT22;67903;52.108;9.358;2023-08-20T02:32:42;20.10;83.70
64987;DHT22;67903;52.108;9.358;2023-08-20T02:35:27;20.00;83.90
64987;DHT22;67903;52.108;9.358;2023-08-20T02:38:13;20.00;84.30
64987;DHT22;67903;52.108;9.358;2023-08-20T02:41:01;20.00;84.90
64987;DHT22;67903;52.108;9.358;2023-08-20T02:43:48;20.00;85.00
64987;DHT22;67903;52.108;9.358;2023-08-20T02:46:33;19.90;85.50
64987;DHT22;67903;52.108;9.358;2023-08-20T02:49:19;19.70;85.90
64987;DHT22;67903;52.108;9.358;2023-08-20T02:52:04;19.70;86.00
64987;DHT22;67903;52.108;9.358;2023-08-20T02:54:50;19.90;85.80
64987;DHT22;67903;52.108;9.358;2023-08-20T02:57:36;19.90;86.10
64987;DHT22;67903;52.108;9.358;2023-08-20T03:00:22;19.80;86.00
64987;DHT22;67903;52.108;9.358;2023-08-20T03:03:08;19.80;86.30
64987;DHT22;67903;52.108;9.358;2023-08-20T03:05:55;19.80;86.50
64987;DHT22;67903;52.108;9.358;2023-08-20T03:08:41;19.90;86.90
64987;DHT22;67903;52.108;9.358;2023-08-20T03:11:27;19.90;86.40
64987;DHT22;67903;52.108;9.358;2023-08-20T03:14:12;19.70;87.20
64987;DHT22;67903;52.108;9.358;2023-08-20T03:16:58;19.60;88.00
64987;DHT22;67903;52.108;9.358;2023-08-20T03:19:59;19.50;87.80
64987;DHT22;67903;52.108;9.358;2023-08-20T03:22:45;19.60;87.20
64987;DHT22;67903;52.108;9.358;2023-08-20T03:25:30;19.70;86.60
64987;DHT22;67903;52.108;9.358;2023-08-20T03:28:18;19.70;86.70
64987;DHT22;67903;52.108;9.358;2023-08-20T03:31:03;19.70;86.60
64987;DHT22;67903;52.108;9.358;2023-08-20T03:33:54;19.70;86.40
64987;DHT22;67903;52.108;9.358;2023-08-20T03:36:39;19.70;86.30
64987;DHT22;67903;52.108;9.358;2023-08-20T03:39:25;19.70;86.60
64987;DHT22;67903;52.108;9.358;2023-08-20T03:42:11;19.60;87.20
64987;DHT22;67903;52.108;9.358;2023-08-20T03:44:56;19.50;87.90
64987;DHT22;67903;52.108;9.358;2023-08-20T03:47:42;19.50;87.20
64987;DHT22;67903;52.108;9.358;2023-08-20T03:50:29;19.50;87.60
64987;DHT22;67903;52.108;9.358;2023-08-20T03:53:15;19.50;87.70
64987;DHT22;67903;52.108;9.358;2023-08-20T03:56:01;19.50;88.20
64987;DHT22;67903;52.108;9.358;2023-08-20T03:58:46;19.40;88.60
64987;DHT22;67903;52.108;9.358;2023-08-20T04:01:33;19.40;88.70
64987;DHT22;67903;52.108;9.358;2023-08-20T04:04:18;19.30;88.80
64987;DHT22;67903;52.108;9.358;2023-08-20T04:07:04;19.40;88.20
64987;DHT22;67903;52.108;9.358;2023-08-20T04:09:50;19.30;88.30
64987;DHT22;67903;52.108;9.358;2023-08-20T04:12:35;19.30;88.50
64987;DHT22;67903;52.108;9.358;2023-08-20T04:15:21;19.20;88.30
64987;DHT22;67903;52.108;9.358;2023-08-20T04:18:07;19.20;88.00
64987;DHT22;67903;52.108;9.358;2023-08-20T04:20:53;19.20;86.70
64987;DHT22;67903;52.108;9.358;2023-08-20T04:23:39;19.30;85.80
64987;DHT22;67903;52.108;9.358;2023-08-20T04:26:27;19.30;85.70
64987;DHT22;67903;52.108;9.358;2023-08-20T04:29:12;19.30;85.90
64987;DHT22;67903;52.108;9.358;2023-08-20T04:31:58;19.30;86.40
64987;DHT22;67903;52.108;9.358;2023-08-20T04:34:44;19.30;85.80
64987;DHT22;67903;52.108;9.358;2023-08-20T04:37:32;19.30;85.60
64987;DHT22;67903;52.108;9.358;2023-08-20T04:40:18;19.30;85.90
64987;DHT22;67903;52.108;9.358;2023-08-20T04:43:04;19.30;85.50
64987;DHT22;67903;52.108;9.358;2023-08-20T04:45:50;19.30;85.70
64987;DHT22;67903;52.108;9.358;2023-08-20T04:48:36;19.40;85.90
64987;DHT22;67903;52.108;9.358;2023-08-20T04:51:22;19.50;85.60
64987;DHT22;67903;52.108;9.358;2023-08-20T04:54:07;19.50;85.50
64987;DHT22;67903;52.108;9.358;2023-08-20T04:56:53;19.50;85.20
64987;DHT22;67903;52.108;9.358;2023-08-20T04:59:40;19.50;85.00
64987;DHT22;67903;52.108;9.358;2023-08-20T05:02:46;19.50;85.50
64987;DHT22;67903;52.108;9.358;2023-08-20T05:05:35;19.60;85.40
64987;DHT22;67903;52.108;9.358;2023-08-20T05:08:20;19.70;84.90
64987;DHT22;67903;52.108;9.358;2023-08-20T05:11:06;19.70;85.00
64987;DHT22;67903;52.108;9.358;2023-08-20T05:13:52;19.70;84.70
64987;DHT22;67903;52.108;9.358;2023-08-20T05:16:39;19.70;85.20
64987;DHT22;67903;52.108;9.358;2023-08-20T05:19:25;19.70;85.20
64987;DHT22;67903;52.108;9.358;2023-08-20T05:22:11;19.70;85.10
64987;DHT22;67903;52.108;9.358;2023-08-20T05:24:57;19.80;85.10
64987;DHT22;67903;52.108;9.358;2023-08-20T05:27:44;19.80;85.30
64987;DHT22;67903;52.108;9.358;2023-08-20T05:30:30;20.00;84.80
64987;DHT22;67903;52.108;9.358;2023-08-20T05:33:15;20.00;84.80
64987;DHT22;67903;52.108;9.358;2023-08-20T05:36:02;20.00;84.70
64987;DHT22;67903;52.108;9.358;2023-08-20T05:38:48;20.00;84.40
64987;DHT22;67903;52.108;9.358;2023-08-20T05:41:33;20.00;83.80
64987;DHT22;67903;52.108;9.358;2023-08-20T05:44:21;20.00;83.30
64987;DHT22;67903;52.108;9.358;2023-08-20T05:47:07;20.00;83.10
64987;DHT22;67903;52.108;9.358;2023-08-20T05:49:53;20.00;83.40
64987;DHT22;67903;52.108;9.358;2023-08-20T05:52:39;20.00;83.70
64987;DHT22;67903;52.108;9.358;2023-08-20T05:55:25;20.00;84.00
64987;DHT22;67903;52.108;9.358;2023-08-20T05:58:12;20.00;84.30
64987;DHT22;67903;52.108;9.358;2023-08-20T06:00:59;20.00;84.40
64987;DHT22;67903;52.108;9.358;2023-08-20T06:03:44;19.90;84.70
64987;DHT22;67903;52.108;9.358;2023-08-20T06:06:30;19.70;85.00
64987;DHT22;67903;52.108;9.358;2023-08-20T06:09:15;19.90;85.10
64987;DHT22;67903;52.108;9.358;2023-08-20T06:12:01;20.00;84.50
64987;DHT22;67903;52.108;9.358;2023-08-20T06:14:47;20.10;83.10
64987;DHT22;67903;52.108;9.358;2023-08-20T06:17:33;20.30;82.70
64987;DHT22;67903;52.108;9.358;2023-08-20T06:20:19;20.30;81.90
64987;DHT22;67903;52.108;9.358;2023-08-20T06:23:04;20.30;81.60
64987;DHT22;67903;52.108;9.358;2023-08-20T06:25:50;20.30;81.40
64987;DHT22;67903;52.108;9.358;2023-08-20T06:28:36;20.30;80.70
64987;DHT22;67903;52.108;9.358;2023-08-20T06:31:21;20.20;80.70
64987;DHT22;67903;52.108;9.358;2023-08-20T06:34:08;20.10;80.70
64987;DHT22;67903;52.108;9.358;2023-08-20T06:36:53;20.10;80.20
64987;DHT22;67903;52.108;9.358;2023-08-20T06:39:39;20.30;79.50
64987;DHT22;67903;52.108;9.358;2023-08-20T06:42:24;20.30;79.00
64987;DHT22;67903;52.108;9.358;2023-08-20T06:45:10;20.40;78.50
64987;DHT22;67903;52.108;9.358;2023-08-20T06:47:55;20.50;78.20
64987;DHT22;67903;52.108;9.358;2023-08-20T06:50:41;20.50;77.70
64987;DHT22;67903;52.108;9.358;2023-08-20T06:53:27;20.60;76.50
64987;DHT22;67903;52.108;9.358;2023-08-20T06:56:13;20.60;74.30
64987;DHT22;67903;52.108;9.358;2023-08-20T06:58:58;20.70;74.50
64987;DHT22;67903;52.108;9.358;2023-08-20T07:01:44;20.80;73.90
64987;DHT22;67903;52.108;9.358;2023-08-20T07:04:29;20.90;73.50
64987;DHT22;67903;52.108;9.358;2023-08-20T07:07:15;21.00;72.70
64987;DHT22;67903;52.108;9.358;2023-08-20T07:10:01;21.10;71.90
64987;DHT22;67903;52.108;9.358;2023-08-20T07:12:48;21.20;71.60
64987;DHT22;67903;52.108;9.358;2023-08-20T07:15:34;21.30;71.20
64987;DHT22;67903;52.108;9.358;2023-08-20T07:18:19;21.30;70.70
64987;DHT22;67903;52.108;9.358;2023-08-20T07:21:05;21.40;70.50
64987;DHT22;67903;52.108;9.358;2023-08-20T07:23:52;21.50;70.10
64987;DHT22;67903;52.108;9.358;2023-08-20T07:26:38;21.50;70.00
64987;DHT22;67903;52.108;9.358;2023-08-20T07:29:25;21.50;69.30
64987;DHT22;67903;52.108;9.358;2023-08-20T07:32:11;21.50;69.10
64987;DHT22;67903;52.108;9.358;2023-08-20T07:34:57;21.60;69.40
64987;DHT22;67903;52.108;9.358;2023-08-20T07:37:42;21.70;69.50
64987;DHT22;67903;52.108;9.358;2023-08-20T07:40:28;21.90;68.30
64987;DHT22;67903;52.108;9.358;2023-08-20T07:43:14;22.00;68.70
64987;DHT22;67903;52.108;9.358;2023-08-20T07:45:59;22.00;68.30
64987;DHT22;67903;52.108;9.358;2023-08-20T07:48:45;22.20;67.60
64987;DHT22;67903;52.108;9.358;2023-08-20T07:51:31;22.30;67.10
64987;DHT22;67903;52.108;9.358;2023-08-20T07:54:16;22.50;67.10
64987;DHT22;67903;52.108;9.358;2023-08-20T07:57:02;22.60;66.10
64987;DHT22;67903;52.108;9.358;2023-08-20T07:59:47;22.70;66.60
64987;DHT22;67903;52.108;9.358;2023-08-20T08:02:33;22.80;65.70
64987;DHT22;67903;52.108;9.358;2023-08-20T08:05:18;23.00;65.90
64987;DHT22;67903;52.108;9.358;2023-08-20T08:08:04;23.00;65.70
64987;DHT22;67903;52.108;9.358;2023-08-20T08:10:50;23.00;64.30
64987;DHT22;67903;52.108;9.358;2023-08-20T08:13:36;22.90;64.40
64987;DHT22;67903;52.108;9.358;2023-08-20T08:16:21;22.80;64.40
64987;DHT22;67903;52.108;9.358;2023-08-20T08:19:07;22.70;65.30
64987;DHT22;67903;52.108;9.358;2023-08-20T08:21:54;22.70;65.80
64987;DHT22;67903;52.108;9.358;2023-08-20T08:24:39;22.80;65.10
64987;DHT22;67903;52.108;9.358;2023-08-20T08:27:27;23.00;64.70
64987;DHT22;67903;52.108;9.358;2023-08-20T08:30:12;23.10;64.40
64987;DHT22;67903;52.108;9.358;2023-08-20T08:32:59;23.20;64.20
64987;DHT22;67903;52.108;9.358;2023-08-20T08:35:45;23.30;64.30
64987;DHT22;67903;52.108;9.358;2023-08-20T08:38:30;23.40;64.10
64987;DHT22;67903;52.108;9.358;2023-08-20T08:41:16;23.50;64.30
64987;DHT22;67903;52.108;9.358;2023-08-20T08:44:03;23.50;64.40
64987;DHT22;67903;52.108;9.358;2023-08-20T08:46:49;23.60;63.90
64987;DHT22;67903;52.108;9.358;2023-08-20T08:49:36;23.60;63.70
64987;DHT22;67903;52.108;9.358;2023-08-20T08:52:26;23.60;63.70
64987;DHT22;67903;52.108;9.358;2023-08-20T08:55:12;23.60;63.50
64987;DHT22;67903;52.108;9.358;2023-08-20T08:57:57;23.70;63.50
64987;DHT22;67903;52.108;9.358;2023-08-20T09:00:43;23.80;62.70
64987;DHT22;67903;52.108;9.358;2023-08-20T09:03:28;23.90;62.70
64987;DHT22;67903;52.108;9.358;2023-08-20T09:06:14;23.90;62.90
64987;DHT22;67903;52.108;9.358;2023-08-20T09:09:06;24.00;63.00
64987;DHT22;67903;52.108;9.358;2023-08-20T09:11:52;24.10;62.40
64987;DHT22;67903;52.108;9.358;2023-08-20T09:14:37;24.20;61.80
64987;DHT22;67903;52.108;9.358;2023-08-20T09:17:25;24.00;61.50
64987;DHT22;67903;52.108;9.358;2023-08-20T09:20:12;24.00;62.00
64987;DHT22;67903;52.108;9.358;2023-08-20T09:22:59;24.00;62.00
64987;DHT22;67903;52.108;9.358;2023-08-20T09:25:44;24.10;61.90
64987;DHT22;67903;52.108;9.358;2023-08-20T09:28:44;24.20;62.00
64987;DHT22;67903;52.108;9.358;2023-08-20T09:31:39;24.30;61.70
64987;DHT22;67903;52.108;9.358;2023-08-20T09:34:25;24.30;61.80
64987;DHT22;67903;52.108;9.358;2023-08-20T09:37:18;24.40;61.80
64987;DHT22;67903;52.108;9.358;2023-08-20T09:40:04;24.50;61.50
64987;DHT22;67903;52.108;9.358;2023-08-20T09:42:49;24.50;61.00
64987;DHT22;67903;52.108;9.358;2023-08-20T09:45:37;24.50;61.50
64987;DHT22;67903;52.108;9.358;2023-08-20T09:48:24;24.40;60.60
64987;DHT22;67903;52.108;9.358;2023-08-20T09:51:14;24.40;60.50
64987;DHT22;67903;52.108;9.358;2023-08-20T09:56:55;24.60;61.10
64987;DHT22;67903;52.108;9.358;2023-08-20T09:59:43;24.80;60.90
64987;DHT22;67903;52.108;9.358;2023-08-20T10:02:29;24.90;59.80
64987;DHT22;67903;52.108;9.358;2023-08-20T10:05:15;24.80;59.70
64987;DHT22;67903;52.108;9.358;2023-08-20T10:08:01;24.80;59.10
64987;DHT22;67903;52.108;9.358;2023-08-20T10:10:48;25.00;59.40
64987;DHT22;67903;52.108;9.358;2023-08-20T10:13:34;25.00;58.70
64987;DHT22;67903;52.108;9.358;2023-08-20T10:16:21;25.00;58.50
64987;DHT22;67903;52.108;9.358;2023-08-20T10:19:08;25.00;59.50
64987;DHT22;67903;52.108;9.358;2023-08-20T10:21:56;25.10;59.20
64987;DHT22;67903;52.108;9.358;2023-08-20T10:24:48;25.20;59.60
64987;DHT22;67903;52.108;9.358;2023-08-20T10:27:41;25.30;58.30
64987;DHT22;67903;52.108;9.358;2023-08-20T10:30:30;25.40;56.80
64987;DHT22;67903;52.108;9.358;2023-08-20T10:33:16;25.30;57.70
64987;DHT22;67903;52.108;9.358;2023-08-20T10:36:14;25.30;57.40
64987;DHT22;67903;52.108;9.358;2023-08-20T10:39:05;25.60;57.10
64987;DHT22;67903;52.108;9.358;2023-08-20T10:45:06;25.80;56.40
64987;DHT22;67903;52.108;9.358;2023-08-20T10:47:54;26.00;56.10
64987;DHT22;67903;52.108;9.358;2023-08-20T10:50:40;26.00;56.50
64987;DHT22;67903;52.108;9.358;2023-08-20T10:53:26;26.10;56.00
64987;DHT22;67903;52.108;9.358;2023-08-20T10:56:15;26.10;55.50
64987;DHT22;67903;52.108;9.358;2023-08-20T10:59:06;26.20;55.40
64987;DHT22;67903;52.108;9.358;2023-08-20T11:01:54;26.20;54.60
64987;DHT22;67903;52.108;9.358;2023-08-20T11:04:40;26.50;54.80
64987;DHT22;67903;52.108;9.358;2023-08-20T11:07:26;26.50;53.70
64987;DHT22;67903;52.108;9.358;2023-08-20T11:10:14;26.60;54.90
64987;DHT22;67903;52.108;9.358;2023-08-20T11:13:00;26.70;53.50
64987;DHT22;67903;52.108;9.358;2023-08-20T11:15:48;26.90;53.50
64987;DHT22;67903;52.108;9.358;2023-08-20T11:18:34;27.00;52.70
64987;DHT22;67903;52.108;9.358;2023-08-20T11:21:20;27.00;52.90
64987;DHT22;67903;52.108;9.358;2023-08-20T11:24:06;27.20;52.30
64987;DHT22;67903;52.108;9.358;2023-08-20T11:26:53;27.10;52.70
64987;DHT22;67903;52.108;9.358;2023-08-20T11:29:43;27.00;52.50
64987;DHT22;67903;52.108;9.358;2023-08-20T11:32:30;26.90;52.30
64987;DHT22;67903;52.108;9.358;2023-08-20T11:35:16;27.00;52.20
64987;DHT22;67903;52.108;9.358;2023-08-20T11:38:03;27.00;52.40
64987;DHT22;67903;52.108;9.358;2023-08-20T11:40:49;27.20;52.70
64987;DHT22;67903;52.108;9.358;2023-08-20T11:43:35;27.10;52.20
64987;DHT22;67903;52.108;9.358;2023-08-20T11:46:22;27.20;52.20
64987;DHT22;67903;52.108;9.358;2023-08-20T11:49:10;27.40;52.30
64987;DHT22;67903;52.108;9.358;2023-08-20T11:51:55;27.50;51.60
64987;DHT22;67903;52.108;9.358;2023-08-20T11:54:42;27.20;52.00
64987;DHT22;67903;52.108;9.358;2023-08-20T11:57:31;27.20;52.00
64987;DHT22;67903;52.108;9.358;2023-08-20T12:00:24;27.30;51.90
64987;DHT22;67903;52.108;9.358;2023-08-20T12:03:12;27.40;51.80
64987;DHT22;67903;52.108;9.358;2023-08-20T12:05:57;27.20;52.20
64987;DHT22;67903;52.108;9.358;2023-08-20T12:08:43;27.10;52.10
64987;DHT22;67903;52.108;9.358;2023-08-20T12:11:29;27.20;52.40
64987;DHT22;67903;52.108;9.358;2023-08-20T12:14:17;27.10;52.20
64987;DHT22;67903;52.108;9.358;2023-08-20T12:17:03;27.10;52.80
64987;DHT22;67903;52.108;9.358;2023-08-20T12:19:49;27.20;52.30
64987;DHT22;67903;52.108;9.358;2023-08-20T12:22:34;27.30;52.30
64987;DHT22;67903;52.108;9.358;2023-08-20T12:25:20;27.40;52.30
64987;DHT22;67903;52.108;9.358;2023-08-20T12:28:06;27.50;52.20
64987;DHT22;67903;52.108;9.358;2023-08-20T12:30:51;27.50;52.10
64987;DHT22;67903;52.108;9.358;2023-08-20T12:33:37;27.50;52.50
64987;DHT22;67903;52.108;9.358;2023-08-20T12:36:23;27.20;52.80
64987;DHT22;67903;52.108;9.358;2023-08-20T12:39:09;27.10;52.90
64987;DHT22;67903;52.108;9.358;2023-08-20T12:41:55;27.30;52.70
64987;DHT22;67903;52.108;9.358;2023-08-20T12:44:41;27.80;52.50
64987;DHT22;67903;52.108;9.358;2023-08-20T12:47:26;28.20;51.70
64987;DHT22;67903;52.108;9.358;2023-08-20T12:50:12;28.20;51.90
64987;DHT22;67903;52.108;9.358;2023-08-20T12:52:59;28.00;51.60
64987;DHT22;67903;52.108;9.358;2023-08-20T12:55:45;27.90;52.00
64987;DHT22;67903;52.108;9.358;2023-08-20T12:58:31;27.90;52.30
64987;DHT22;67903;52.108;9.358;2023-08-20T13:01:17;28.00;51.90
64987;DHT22;67903;52.108;9.358;2023-08-20T13:04:04;28.10;52.10
64987;DHT22;67903;52.108;9.358;2023-08-20T13:06:50;28.00;51.60
64987;DHT22;67903;52.108;9.358;2023-08-20T13:09:36;27.90;51.50
64987;DHT22;67903;52.108;9.358;2023-08-20T13:12:24;28.10;51.20
64987;DHT22;67903;52.108;9.358;2023-08-20T13:15:12;28.10;51.30
64987;DHT22;67903;52.108;9.358;2023-08-20T13:17:58;27.90;51.10
64987;DHT22;67903;52.108;9.358;2023-08-20T13:20:44;27.90;51.60
64987;DHT22;67903;52.108;9.358;2023-08-20T13:23:29;27.90;51.20
64987;DHT22;67903;52.108;9.358;2023-08-20T13:26:15;28.10;51.60
64987;DHT22;67903;52.108;9.358;2023-08-20T13:29:01;28.50;50.60
64987;DHT22;67903;52.108;9.358;2023-08-20T13:31:46;28.70;50.20
64987;DHT22;67903;52.108;9.358;2023-08-20T13:34:32;28.90;49.70
64987;DHT22;67903;52.108;9.358;2023-08-20T13:37:17;29.10;49.70
64987;DHT22;67903;52.108;9.358;2023-08-20T13:40:03;28.90;50.30
64987;DHT22;67903;52.108;9.358;2023-08-20T13:42:49;28.70;50.50
64987;DHT22;67903;52.108;9.358;2023-08-20T13:45:35;28.30;50.50
64987;DHT22;67903;52.108;9.358;2023-08-20T13:48:20;28.50;50.80
64987;DHT22;67903;52.108;9.358;2023-08-20T13:51:06;28.60;51.00
64987;DHT22;67903;52.108;9.358;2023-08-20T13:53:51;28.70;50.70
64987;DHT22;67903;52.108;9.358;2023-08-20T13:56:37;28.70;50.90
64987;DHT22;67903;52.108;9.358;2023-08-20T13:59:23;28.90;50.70
64987;DHT22;67903;52.108;9.358;2023-08-20T14:02:08;29.00;50.20
64987;DHT22;67903;52.108;9.358;2023-08-20T14:04:53;29.00;49.80
64987;DHT22;67903;52.108;9.358;2023-08-20T14:07:39;28.60;50.60
64987;DHT22;67903;52.108;9.358;2023-08-20T14:10:25;28.70;50.70
64987;DHT22;67903;52.108;9.358;2023-08-20T14:13:11;28.90;50.20
64987;DHT22;67903;52.108;9.358;2023-08-20T14:15:57;28.90;50.30
64987;DHT22;67903;52.108;9.358;2023-08-20T14:18:42;29.10;50.30
64987;DHT22;67903;52.108;9.358;2023-08-20T14:21:28;28.50;50.10
64987;DHT22;67903;52.108;9.358;2023-08-20T14:24:14;28.70;50.00
64987;DHT22;67903;52.108;9.358;2023-08-20T14:27:02;29.20;49.70
64987;DHT22;67903;52.108;9.358;2023-08-20T14:29:48;29.70;49.00
64987;DHT22;67903;52.108;9.358;2023-08-20T14:32:33;30.20;48.00
64987;DHT22;67903;52.108;9.358;2023-08-20T14:35:23;30.10;48.10
64987;DHT22;67903;52.108;9.358;2023-08-20T14:38:12;31.10;46.90
64987;DHT22;67903;52.108;9.358;2023-08-20T14:41:01;32.00;45.20
64987;DHT22;67903;52.108;9.358;2023-08-20T14:43:49;32.60;44.10
64987;DHT22;67903;52.108;9.358;2023-08-20T14:46:34;33.00;42.60
64987;DHT22;67903;52.108;9.358;2023-08-20T14:49:20;33.10;42.80
64987;DHT22;67903;52.108;9.358;2023-08-20T14:52:06;33.20;42.20
64987;DHT22;67903;52.108;9.358;2023-08-20T14:55:05;33.60;41.20
64987;DHT22;67903;52.108;9.358;2023-08-20T14:57:53;33.30;41.80
64987;DHT22;67903;52.108;9.358;2023-08-20T15:00:40;33.80;41.20
64987;DHT22;67903;52.108;9.358;2023-08-20T15:03:25;33.50;41.40
64987;DHT22;67903;52.108;9.358;2023-08-20T15:06:11;33.90;40.90
64987;DHT22;67903;52.108;9.358;2023-08-20T15:08:57;34.30;40.90
64987;DHT22;67903;52.108;9.358;2023-08-20T15:11:42;33.60;41.50
64987;DHT22;67903;52.108;9.358;2023-08-20T15:14:28;34.00;40.70
64987;DHT22;67903;52.108;9.358;2023-08-20T15:17:14;34.40;40.70
64987;DHT22;67903;52.108;9.358;2023-08-20T15:20:00;34.60;40.10
64987;DHT22;67903;52.108;9.358;2023-08-20T15:22:46;35.10;39.70
64987;DHT22;67903;52.108;9.358;2023-08-20T15:25:32;35.60;39.10
64987;DHT22;67903;52.108;9.358;2023-08-20T15:28:19;35.10;39.50
64987;DHT22;67903;52.108;9.358;2023-08-20T15:31:05;34.80;40.50
64987;DHT22;67903;52.108;9.358;2023-08-20T15:33:50;35.00;39.80
64987;DHT22;67903;52.108;9.358;2023-08-20T15:36:37;34.70;40.00
64987;DHT22;67903;52.108;9.358;2023-08-20T15:39:23;34.90;40.00
64987;DHT22;67903;52.108;9.358;2023-08-20T15:42:09;34.40;40.20
64987;DHT22;67903;52.108;9.358;2023-08-20T15:44:55;34.70;40.20
64987;DHT22;67903;52.108;9.358;2023-08-20T15:47:41;34.80;39.90
64987;DHT22;67903;52.108;9.358;2023-08-20T15:50:26;34.40;40.60
64987;DHT22;67903;52.108;9.358;2023-08-20T15:53:14;33.50;42.00
64987;DHT22;67903;52.108;9.358;2023-08-20T15:55:59;32.70;43.00
64987;DHT22;67903;52.108;9.358;2023-08-20T15:58:45;32.50;43.10
64987;DHT22;67903;52.108;9.358;2023-08-20T16:01:30;32.00;44.10
64987;DHT22;67903;52.108;9.358;2023-08-20T16:04:17;31.60;44.70
64987;DHT22;67903;52.108;9.358;2023-08-20T16:07:03;30.70;46.00
64987;DHT22;67903;52.108;9.358;2023-08-20T16:09:48;29.80;47.70
64987;DHT22;67903;52.108;9.358;2023-08-20T16:12:34;29.70;48.30
64987;DHT22;67903;52.108;9.358;2023-08-20T16:15:20;29.40;48.70
64987;DHT22;67903;52.108;9.358;2023-08-20T16:18:05;29.20;49.50
64987;DHT22;67903;52.108;9.358;2023-08-20T16:20:51;29.50;49.10
64987;DHT22;67903;52.108;9.358;2023-08-20T16:23:36;29.90;48.90
64987;DHT22;67903;52.108;9.358;2023-08-20T16:26:22;30.30;48.10
64987;DHT22;67903;52.108;9.358;2023-08-20T16:29:07;30.00;48.20
64987;DHT22;67903;52.108;9.358;2023-08-20T16:31:53;29.40;49.40
64987;DHT22;67903;52.108;9.358;2023-08-20T16:34:38;29.00;50.20
64987;DHT22;67903;52.108;9.358;2023-08-20T16:37:24;28.70;50.90
64987;DHT22;67903;52.108;9.358;2023-08-20T16:40:22;28.50;51.40
64987;DHT22;67903;52.108;9.358;2023-08-20T16:43:08;28.30;51.90
64987;DHT22;67903;52.108;9.358;2023-08-20T16:45:56;28.10;52.10
64987;DHT22;67903;52.108;9.358;2023-08-20T16:48:44;28.50;51.50
64987;DHT22;67903;52.108;9.358;2023-08-20T16:51:30;28.90;50.80
64987;DHT22;67903;52.108;9.358;2023-08-20T16:54:15;28.90;51.00
64987;DHT22;67903;52.108;9.358;2023-08-20T16:57:02;28.60;51.90
64987;DHT22;67903;52.108;9.358;2023-08-20T16:59:48;28.50;52.50
64987;DHT22;67903;52.108;9.358;2023-08-20T17:02:34;28.30;53.30
64987;DHT22;67903;52.108;9.358;2023-08-20T17:05:22;28.30;53.70
64987;DHT22;67903;52.108;9.358;2023-08-20T17:08:08;28.20;53.10
64987;DHT22;67903;52.108;9.358;2023-08-20T17:10:54;28.10;52.50
64987;DHT22;67903;52.108;9.358;2023-08-20T17:13:40;28.10;52.70
64987;DHT22;67903;52.108;9.358;2023-08-20T17:16:26;28.30;52.40
64987;DHT22;67903;52.108;9.358;2023-08-20T17:19:12;28.30;52.10
64987;DHT22;67903;52.108;9.358;2023-08-20T17:21:58;28.20;52.00
64987;DHT22;67903;52.108;9.358;2023-08-20T17:24:43;28.10;51.90
64987;DHT22;67903;52.108;9.358;2023-08-20T17:27:29;28.10;52.50
64987;DHT22;67903;52.108;9.358;2023-08-20T17:30:15;27.90;52.60
64987;DHT22;67903;52.108;9.358;2023-08-20T17:33:00;27.70;52.60
64987;DHT22;67903;52.108;9.358;2023-08-20T17:35:47;27.50;52.90
64987;DHT22;67903;52.108;9.358;2023-08-20T17:38:32;27.50;52.80
64987;DHT22;67903;52.108;9.358;2023-08-20T17:41:18;27.30;53.40
64987;DHT22;67903;52.108;9.358;2023-08-20T17:44:04;27.20;53.80